Time;durP1;ratioP1;P1;durP2;ratioP2;P2;SDS_P1;SDS_P2;PMS_P1;PMS_P2;Temp;Humidity;BMP_temperature;BMP_pressure;BME280_temperature;BME280_humidity;BME280_pressure;Samples;Min_cycle;Max_cycle;Signal;HPM_P1;HPM_P2
2021/09/19 00:01:58;;;;;;;15.50;14.20;;;11.10;99.90;;;;;;4976312;28;20205;-80
2021/09/19 00:04:25;;;;;;;15.37;14.07;;;11.10;99.90;;;;;;4973003;28;20205;-79
2021/09/19 00:06:52;;;;;;;16.63;15.13;;;11.10;99.90;;;;;;4992727;28;20229;-79
2021/09/19 00:09:18;;;;;;;15.43;14.20;;;11.10;99.90;;;;;;4989061;28;20210;-79
2021/09/19 00:11:47;;;;;;;15.70;14.40;;;11.00;99.90;;;;;;4991887;28;20364;-79
2021/09/19 00:14:14;;;;;;;15.60;14.30;;;11.00;99.90;;;;;;4971223;28;20217;-79
2021/09/19 00:16:41;;;;;;;15.97;14.67;;;11.10;99.90;;;;;;4973468;28;20217;-79
2021/09/19 00:19:08;;;;;;;15.67;14.27;;;11.00;99.90;;;;;;4975617;28;20206;-79
2021/09/19 00:21:35;;;;;;;16.03;14.63;;;11.00;99.90;;;;;;4972565;28;20627;-79
2021/09/19 00:24:02;;;;;;;16.40;15.00;;;11.00;99.90;;;;;;4970129;28;20260;-79
2021/09/19 00:26:28;;;;;;;16.40;15.00;;;10.90;99.90;;;;;;4987253;28;20213;-79
2021/09/19 00:28:57;;;;;;;16.57;15.17;;;10.90;99.90;;;;;;4973835;28;20289;-79
2021/09/19 00:31:23;;;;;;;16.93;15.43;;;10.90;99.90;;;;;;4988276;28;20276;-79
2021/09/19 00:33:50;;;;;;;17.07;15.57;;;11.00;99.90;;;;;;4985854;28;20197;-79
2021/09/19 00:36:17;;;;;;;16.33;15.03;;;11.00;99.90;;;;;;4967830;28;20630;-80
2021/09/19 00:38:45;;;;;;;17.37;15.77;;;10.90;99.90;;;;;;4993150;28;20201;-78
2021/09/19 00:41:12;;;;;;;17.37;15.80;;;10.90;99.90;;;;;;4970937;28;20231;-79
2021/09/19 00:43:39;;;;;;;17.30;15.80;;;10.90;99.90;;;;;;4972543;28;20197;-80
2021/09/19 00:46:07;;;;;;;17.53;16.03;;;10.80;99.90;;;;;;4976005;28;20253;-79
2021/09/19 00:48:34;;;;;;;17.83;16.13;;;10.80;99.90;;;;;;4970815;28;20197;-79
2021/09/19 00:51:03;;;;;;;16.63;15.13;;;10.90;99.90;;;;;;4993077;28;20304;-80
2021/09/19 00:53:32;;;;;;;17.27;15.80;;;10.80;99.90;;;;;;4988080;28;20698;-79
2021/09/19 00:56:02;;;;;;;18.07;16.27;;;10.80;99.90;;;;;;4974803;28;20232;-80
2021/09/19 00:58:31;;;;;;;18.57;16.93;;;10.80;99.90;;;;;;4986884;28;20251;-79
2021/09/19 01:00:58;;;;;;;17.80;16.30;;;10.70;99.90;;;;;;4973390;28;20239;-80
2021/09/19 01:03:27;;;;;;;18.10;16.43;;;10.80;99.90;;;;;;4975474;28;20209;-80
2021/09/19 01:05:55;;;;;;;19.03;17.33;;;10.80;99.90;;;;;;4968031;28;20233;-79
2021/09/19 01:08:22;;;;;;;18.33;16.63;;;10.70;99.90;;;;;;5030919;23;20281;-77
2021/09/19 01:10:49;;;;;;;18.70;17.10;;;10.70;99.90;;;;;;5004540;28;20259;-77
2021/09/19 01:13:17;;;;;;;18.60;16.90;;;10.80;99.90;;;;;;5025330;28;20220;-77
2021/09/19 01:15:44;;;;;;;17.60;16.10;;;10.80;99.90;;;;;;5023361;28;20197;-76
2021/09/19 01:18:13;;;;;;;20.53;18.50;;;10.70;99.90;;;;;;5015943;28;20216;-77
2021/09/19 01:20:41;;;;;;;20.03;18.17;;;10.70;99.90;;;;;;5017790;28;20257;-77
2021/09/19 01:23:12;;;;;;;19.10;17.40;;;10.70;99.90;;;;;;5018476;28;20192;-77
2021/09/19 01:25:41;;;;;;;18.63;16.93;;;10.70;99.90;;;;;;5013753;28;20248;-77
2021/09/19 01:28:09;;;;;;;19.30;17.53;;;10.70;99.90;;;;;;5017293;28;20264;-77
2021/09/19 01:30:36;;;;;;;19.33;17.63;;;10.70;99.90;;;;;;5019919;28;20220;-76
2021/09/19 01:33:04;;;;;;;21.90;19.90;;;10.70;99.90;;;;;;5015226;28;20208;-76
2021/09/19 01:35:31;;;;;;;19.63;17.63;;;10.60;99.90;;;;;;5016151;28;20231;-76
2021/09/19 01:37:58;;;;;;;18.03;16.43;;;10.60;99.90;;;;;;5010679;28;20218;-77
2021/09/19 01:40:26;;;;;;;18.47;16.77;;;10.60;99.90;;;;;;5003103;28;20250;-77
2021/09/19 01:42:55;;;;;;;20.17;18.30;;;10.60;99.90;;;;;;5016013;28;20656;-77
2021/09/19 01:45:23;;;;;;;19.60;17.80;;;10.50;99.90;;;;;;4995659;28;20243;-77
2021/09/19 01:47:51;;;;;;;19.57;17.77;;;10.50;99.90;;;;;;5010813;28;20215;-76
2021/09/19 01:50:20;;;;;;;18.37;16.67;;;10.50;99.90;;;;;;5015640;28;20204;-77
2021/09/19 01:52:47;;;;;;;17.80;16.30;;;10.40;99.90;;;;;;5013783;28;20197;-77
2021/09/19 01:55:14;;;;;;;19.17;17.47;;;10.40;99.90;;;;;;5010716;28;20208;-76
2021/09/19 01:57:41;;;;;;;18.40;16.70;;;10.40;99.90;;;;;;4999845;28;20731;-76
2021/09/19 02:00:10;;;;;;;18.77;17.07;;;10.30;99.90;;;;;;4995865;28;20571;-77
2021/09/19 02:02:38;;;;;;;19.53;17.83;;;10.30;99.90;;;;;;5003993;28;20204;-77
2021/09/19 02:05:07;;;;;;;19.10;17.50;;;10.30;99.90;;;;;;4996916;28;20827;-76
2021/09/19 02:07:36;;;;;;;20.37;18.47;;;10.30;99.90;;;;;;5017849;28;20231;-77
2021/09/19 02:10:04;;;;;;;20.00;18.10;;;10.30;99.90;;;;;;5015070;28;20275;-77
2021/09/19 02:12:31;;;;;;;21.00;18.87;;;10.30;99.90;;;;;;5011737;28;20279;-77
2021/09/19 02:14:57;;;;;;;20.83;18.80;;;10.30;99.90;;;;;;5022401;28;20199;-76
2021/09/19 02:17:25;;;;;;;20.47;18.60;;;10.20;99.90;;;;;;5016396;28;20752;-77
2021/09/19 02:19:52;;;;;;;21.70;19.70;;;10.20;99.90;;;;;;4996376;28;20649;-77
2021/09/19 02:22:19;;;;;;;21.07;19.17;;;10.20;99.90;;;;;;5019783;28;20544;-77
2021/09/19 02:24:46;;;;;;;21.70;19.80;;;10.20;99.90;;;;;;5018712;28;20251;-76
2021/09/19 02:27:13;;;;;;;20.93;19.03;;;10.20;99.90;;;;;;5016515;28;20223;-77
2021/09/19 02:29:39;;;;;;;21.33;19.23;;;10.20;99.90;;;;;;5011853;28;20193;-77
2021/09/19 02:32:07;;;;;;;20.57;18.67;;;10.10;99.90;;;;;;5022147;28;20221;-76
2021/09/19 02:34:35;;;;;;;22.20;19.90;;;10.10;99.90;;;;;;5001368;28;20197;-76
2021/09/19 02:37:02;;;;;;;20.70;18.73;;;10.10;99.90;;;;;;5005275;28;20228;-77
2021/09/19 02:39:28;;;;;;;21.43;19.33;;;10.10;99.90;;;;;;5003122;28;20200;-77
2021/09/19 02:41:55;;;;;;;22.40;20.30;;;10.10;99.90;;;;;;5002550;28;20193;-76
2021/09/19 02:44:22;;;;;;;21.83;19.90;;;10.00;99.90;;;;;;5018805;28;20239;-76
2021/09/19 02:46:49;;;;;;;22.53;20.23;;;10.00;99.90;;;;;;5004856;28;20272;-76
2021/09/19 02:49:16;;;;;;;20.77;18.77;;;10.00;99.90;;;;;;5003451;28;20325;-77
2021/09/19 02:51:44;;;;;;;20.37;18.53;;;10.00;99.90;;;;;;5020557;28;20213;-77
2021/09/19 02:54:11;;;;;;;20.53;18.57;;;9.90;99.90;;;;;;5021443;28;20573;-76
2021/09/19 02:56:38;;;;;;;21.00;19.03;;;9.90;99.90;;;;;;5020424;28;20705;-77
2021/09/19 02:59:05;;;;;;;21.77;19.77;;;9.90;99.90;;;;;;4988931;28;20204;-76
2021/09/19 03:01:32;;;;;;;21.23;19.13;;;9.90;99.90;;;;;;5000490;28;20200;-77
2021/09/19 03:03:59;;;;;;;23.20;21.00;;;9.90;99.90;;;;;;4985721;28;20200;-76
2021/09/19 03:06:26;;;;;;;21.47;19.37;;;9.80;99.90;;;;;;5003251;28;20205;-76
2021/09/19 03:08:54;;;;;;;21.30;19.23;;;9.80;99.90;;;;;;5009919;28;20203;-76
2021/09/19 03:11:21;;;;;;;20.90;18.87;;;9.80;99.90;;;;;;5005016;28;20286;-77
2021/09/19 03:13:48;;;;;;;20.53;18.63;;;9.90;99.90;;;;;;4987218;28;20250;-76
2021/09/19 03:16:15;;;;;;;21.13;19.13;;;9.80;99.90;;;;;;5012669;28;20197;-76
2021/09/19 03:18:42;;;;;;;20.73;18.83;;;9.80;99.90;;;;;;4984679;28;20229;-76
2021/09/19 03:21:08;;;;;;;21.50;19.20;;;9.90;99.90;;;;;;4995240;28;20205;-76
2021/09/19 03:23:35;;;;;;;22.00;19.97;;;9.80;99.90;;;;;;5003929;28;20219;-75
2021/09/19 03:26:04;;;;;;;21.70;19.70;;;9.70;99.90;;;;;;4988942;28;20256;-75
2021/09/19 03:28:31;;;;;;;21.77;19.77;;;9.70;99.90;;;;;;4992980;28;20588;-75
2021/09/19 03:30:58;;;;;;;22.20;20.20;;;9.70;99.90;;;;;;5015280;28;20262;-75
2021/09/19 03:33:25;;;;;;;22.23;19.90;;;9.70;99.90;;;;;;4999220;28;20259;-78
2021/09/19 03:35:52;;;;;;;22.00;19.77;;;9.70;99.90;;;;;;4983748;28;20578;-78
2021/09/19 03:38:19;;;;;;;20.47;18.57;;;9.70;99.90;;;;;;5006269;28;20280;-77
2021/09/19 03:40:46;;;;;;;21.13;18.93;;;9.60;99.90;;;;;;5000255;28;20196;-75
2021/09/19 03:43:14;;;;;;;21.33;19.23;;;9.60;99.90;;;;;;5007194;28;20232;-75
2021/09/19 03:45:40;;;;;;;21.20;19.30;;;9.70;99.90;;;;;;5022175;28;20684;-78
2021/09/19 03:48:09;;;;;;;21.00;19.10;;;9.60;99.90;;;;;;5018033;28;20216;-75
2021/09/19 03:50:36;;;;;;;19.60;17.73;;;9.60;99.90;;;;;;5003972;28;20204;-74
2021/09/19 03:53:04;;;;;;;20.93;18.93;;;9.60;99.90;;;;;;4985721;28;20612;-75
2021/09/19 03:55:30;;;;;;;19.77;17.87;;;9.50;99.90;;;;;;5003095;28;20203;-75
2021/09/19 03:57:59;;;;;;;19.33;17.57;;;9.60;99.90;;;;;;5009478;28;20224;-75
2021/09/19 04:00:27;;;;;;;21.57;19.57;;;9.60;99.90;;;;;;4990788;28;20209;-75
2021/09/19 04:02:54;;;;;;;19.70;17.87;;;9.50;99.90;;;;;;4985990;28;20656;-75
2021/09/19 04:05:21;;;;;;;19.77;17.77;;;9.50;99.90;;;;;;5013854;28;20609;-78
2021/09/19 04:07:48;;;;;;;20.23;18.33;;;9.50;99.90;;;;;;4990592;28;20224;-75
2021/09/19 04:10:15;;;;;;;19.53;17.67;;;9.50;99.90;;;;;;4999631;28;20291;-75
2021/09/19 04:12:42;;;;;;;17.80;16.30;;;9.60;99.90;;;;;;5006645;28;20221;-75
2021/09/19 04:15:10;;;;;;;19.93;18.07;;;9.50;99.90;;;;;;5005489;28;20208;-75
2021/09/19 04:17:39;;;;;;;20.00;18.30;;;9.50;99.90;;;;;;5012485;28;20232;-75
2021/09/19 04:20:07;;;;;;;19.57;17.77;;;9.50;99.90;;;;;;5000152;28;20198;-74
2021/09/19 04:22:34;;;;;;;20.70;18.63;;;9.50;99.90;;;;;;4986873;28;20669;-75
2021/09/19 04:25:00;;;;;;;20.73;18.83;;;9.50;99.90;;;;;;5000215;28;20193;-75
2021/09/19 04:27:27;;;;;;;19.80;18.00;;;9.40;99.90;;;;;;4986770;28;20307;-78
2021/09/19 04:29:54;;;;;;;19.77;17.97;;;9.40;99.90;;;;;;4982493;28;20613;-75
2021/09/19 04:32:22;;;;;;;18.40;16.83;;;9.40;99.90;;;;;;5002165;28;20233;-75
2021/09/19 04:34:50;;;;;;;19.53;17.80;;;9.40;99.90;;;;;;5023960;28;20696;-75
2021/09/19 04:37:17;;;;;;;19.23;17.53;;;9.30;99.90;;;;;;4997796;28;20228;-75
2021/09/19 04:39:44;;;;;;;20.20;18.40;;;9.30;99.90;;;;;;5002163;28;20224;-75
2021/09/19 04:42:13;;;;;;;20.70;18.70;;;9.30;99.90;;;;;;4987725;28;20195;-74
2021/09/19 04:44:40;;;;;;;20.83;18.83;;;9.30;99.90;;;;;;5001363;28;20212;-75
2021/09/19 04:47:07;;;;;;;19.90;18.10;;;9.20;99.90;;;;;;5001114;28;20275;-75
2021/09/19 04:49:35;;;;;;;20.60;18.50;;;9.20;99.90;;;;;;4982113;28;20662;-76
2021/09/19 04:52:03;;;;;;;19.33;17.53;;;9.20;99.90;;;;;;5001572;28;20273;-75
2021/09/19 04:54:30;;;;;;;18.30;16.80;;;9.20;99.90;;;;;;5009905;28;20193;-75
2021/09/19 04:56:57;;;;;;;20.27;18.47;;;9.20;99.90;;;;;;4999088;28;20770;-75
2021/09/19 04:59:24;;;;;;;20.63;18.83;;;9.20;99.90;;;;;;4980731;28;20646;-74
2021/09/19 05:01:51;;;;;;;18.83;17.13;;;9.20;99.90;;;;;;4980449;28;20570;-74
2021/09/19 05:04:18;;;;;;;20.17;18.43;;;9.30;99.90;;;;;;4992654;28;20205;-74
2021/09/19 05:06:45;;;;;;;19.37;17.67;;;9.30;99.90;;;;;;5003412;28;20317;-75
2021/09/19 05:09:14;;;;;;;18.33;16.83;;;9.30;99.90;;;;;;5016312;28;20656;-78
2021/09/19 05:11:41;;;;;;;19.00;17.37;;;9.30;99.90;;;;;;5006600;28;20208;-80
2021/09/19 05:14:08;;;;;;;20.07;18.17;;;9.30;99.90;;;;;;4998916;28;20203;-78
2021/09/19 05:16:35;;;;;;;19.20;17.53;;;9.30;99.90;;;;;;5001051;28;20202;-79
2021/09/19 05:19:02;;;;;;;20.23;18.37;;;9.20;99.90;;;;;;5027634;28;20551;-77
2021/09/19 05:21:29;;;;;;;19.90;18.10;;;9.30;99.90;;;;;;5008692;28;20238;-77
2021/09/19 05:23:55;;;;;;;20.83;19.00;;;9.40;99.90;;;;;;4988012;28;20202;-75
2021/09/19 05:26:24;;;;;;;19.47;17.67;;;9.40;99.90;;;;;;5011422;28;20211;-75
2021/09/19 05:28:51;;;;;;;19.60;17.90;;;9.40;99.90;;;;;;4987001;28;20250;-75
2021/09/19 05:31:18;;;;;;;20.37;18.57;;;9.40;99.90;;;;;;5004545;28;20207;-75
2021/09/19 05:33:46;;;;;;;19.20;17.40;;;9.40;99.90;;;;;;5017212;28;20242;-75
2021/09/19 05:36:13;;;;;;;18.20;16.47;;;9.50;99.90;;;;;;5014183;28;20303;-75
2021/09/19 05:38:40;;;;;;;19.27;17.70;;;9.50;99.90;;;;;;4995089;28;20393;-75
2021/09/19 05:41:06;;;;;;;17.13;15.33;;;9.50;99.90;;;;;;4998458;28;20207;-75
2021/09/19 05:43:35;;;;;;;17.40;15.90;;;9.50;99.90;;;;;;5002054;28;20280;-75
2021/09/19 05:46:02;;;;;;;17.90;16.20;;;9.60;99.90;;;;;;5009400;28;20247;-75
2021/09/19 05:48:28;;;;;;;16.70;15.20;;;9.60;99.90;;;;;;5012376;28;20280;-76
2021/09/19 05:50:55;;;;;;;17.30;15.90;;;9.70;99.90;;;;;;5002596;28;20252;-75
2021/09/19 05:53:22;;;;;;;18.40;16.70;;;9.80;99.90;;;;;;4994063;28;20737;-75
2021/09/19 05:55:49;;;;;;;18.50;16.93;;;10.00;99.90;;;;;;5019001;28;20629;-75
2021/09/19 05:58:16;;;;;;;17.40;16.00;;;10.10;99.90;;;;;;4997035;28;20217;-75
2021/09/19 06:00:44;;;;;;;19.47;17.87;;;10.10;99.90;;;;;;5013601;28;20284;-75
2021/09/19 06:03:10;;;;;;;14.70;13.30;;;10.20;99.90;;;;;;5010997;28;20197;-75
2021/09/19 06:05:37;;;;;;;11.87;9.90;;;10.20;99.90;;;;;;5021253;28;20249;-75
2021/09/19 06:08:04;;;;;;;17.63;16.23;;;10.30;99.90;;;;;;4987596;28;20587;-75
2021/09/19 06:10:31;;;;;;;15.80;14.40;;;10.50;99.90;;;;;;5003821;28;20270;-76
2021/09/19 06:12:58;;;;;;;14.67;13.17;;;10.60;99.90;;;;;;4976031;28;20233;-77
2021/09/19 06:15:25;;;;;;;16.10;14.83;;;10.60;99.90;;;;;;5000664;28;20260;-78
2021/09/19 06:17:53;;;;;;;15.03;13.73;;;10.80;99.90;;;;;;5005762;28;20216;-78
2021/09/19 06:20:20;;;;;;;17.50;16.00;;;10.90;99.90;;;;;;4995441;28;20259;-81
2021/09/19 06:22:47;;;;;;;12.90;11.67;;;11.00;99.90;;;;;;4994460;28;20196;-80
2021/09/19 06:25:14;;;;;;;10.87;9.77;;;11.10;99.90;;;;;;4990444;28;20213;-78
2021/09/19 06:27:40;;;;;;;9.20;8.30;;;11.20;99.90;;;;;;4999778;28;20713;-78
2021/09/19 06:30:09;;;;;;;9.47;8.47;;;11.20;99.90;;;;;;4982468;28;20208;-77
2021/09/19 06:32:36;;;;;;;9.30;8.37;;;11.30;99.90;;;;;;5002848;28;20217;-79
2021/09/19 06:35:05;;;;;;;9.67;8.67;;;11.40;99.90;;;;;;4995488;28;20201;-78
2021/09/19 06:37:32;;;;;;;11.13;9.93;;;11.40;99.90;;;;;;4997743;28;20271;-77
2021/09/19 06:39:59;;;;;;;13.53;9.17;;;11.50;99.90;;;;;;4975134;28;20259;-75
2021/09/19 06:42:26;;;;;;;9.50;8.30;;;11.60;99.90;;;;;;4981472;28;20210;-76
2021/09/19 06:44:53;;;;;;;9.37;8.37;;;11.70;99.90;;;;;;4994335;28;20247;-76
2021/09/19 06:47:20;;;;;;;9.23;8.20;;;11.70;99.90;;;;;;4983146;28;20271;-76
2021/09/19 06:49:47;;;;;;;9.40;8.23;;;11.80;99.90;;;;;;4975517;28;20210;-76
2021/09/19 06:52:15;;;;;;;10.23;8.93;;;12.00;99.90;;;;;;4995774;28;20789;-78
2021/09/19 06:54:42;;;;;;;8.70;7.73;;;12.10;99.90;;;;;;4991178;28;20260;-78
2021/09/19 06:57:10;;;;;;;8.20;7.37;;;12.20;99.90;;;;;;4990046;28;20231;-75
2021/09/19 06:59:37;;;;;;;9.20;8.20;;;12.30;99.90;;;;;;5004402;28;20200;-75
2021/09/19 07:02:04;;;;;;;8.83;7.93;;;12.50;99.90;;;;;;5001258;28;20203;-76
2021/09/19 07:04:31;;;;;;;9.00;8.10;;;12.70;99.90;;;;;;5008294;28;20194;-75
2021/09/19 07:06:58;;;;;;;9.30;8.33;;;13.00;99.90;;;;;;5032090;23;20312;-78
2021/09/19 07:09:26;;;;;;;8.63;7.77;;;13.30;99.90;;;;;;4971648;28;20215;-78
2021/09/19 07:11:53;;;;;;;8.87;7.97;;;13.60;99.90;;;;;;4975809;28;20205;-79
2021/09/19 07:14:19;;;;;;;10.93;9.63;;;14.10;99.90;;;;;;4974344;28;20205;-79
2021/09/19 07:16:46;;;;;;;9.90;8.90;;;14.50;99.90;;;;;;4981172;28;20212;-77
2021/09/19 07:19:13;;;;;;;11.47;10.37;;;14.90;99.90;;;;;;4975368;28;20314;-78
2021/09/19 07:21:40;;;;;;;16.20;15.00;;;15.30;99.90;;;;;;4994258;28;20205;-79
2021/09/19 07:24:07;;;;;;;9.17;8.27;;;15.70;99.90;;;;;;4971022;28;20205;-80
2021/09/19 07:26:35;;;;;;;10.30;9.30;;;16.10;99.90;;;;;;4976900;28;20198;-79
2021/09/19 07:29:02;;;;;;;15.90;14.40;;;16.40;99.90;;;;;;4987197;28;20222;-80
2021/09/19 07:39:55;;;;;;;8.97;8.07;;;17.00;99.90;;;;;;4800384;29;20214;-79
2021/09/19 07:43:04;;;;;;;12.37;11.37;;;17.30;99.90;;;;;;4905272;29;20279;-81
2021/09/19 07:49:15;;;;;;;13.33;12.33;;;17.70;99.90;;;;;;5888377;23;20278;-78
2021/09/19 07:55:15;;;;;;;9.07;8.27;;;18.20;99.90;;;;;;4957973;28;20761;-81
2021/09/19 08:01:25;;;;;;;7.47;6.77;;;18.60;99.90;;;;;;5006951;28;20250;-80
2021/09/19 08:41:58;;;;;;;11.47;10.57;;;19.90;99.90;;;;;;4963734;28;20213;-78
2021/09/19 09:22:13;;;;;;;12.67;11.67;;;21.60;99.90;;;;;;4883371;29;20215;-79
2021/09/19 09:44:46;;;;;;;6.73;6.00;;;21.90;99.90;;;;;;5042878;23;20592;-78
2021/09/19 09:47:15;;;;;;;7.07;6.17;;;22.10;99.90;;;;;;5016940;28;20229;-81
2021/09/19 09:49:48;;;;;;;9.37;6.67;;;22.00;99.90;;;;;;5029433;28;20473;-79
2021/09/19 09:52:21;;;;;;;6.87;6.13;;;21.80;99.90;;;;;;5008782;28;20201;-79
2021/09/19 09:54:50;;;;;;;9.50;8.77;;;21.90;99.90;;;;;;5039331;28;20576;-78
2021/09/19 09:57:34;;;;;;;11.30;10.50;;;22.00;99.90;;;;;;5024274;28;20216;-79
2021/09/19 10:00:05;;;;;;;11.07;10.27;;;21.80;99.90;;;;;;5026707;28;20196;-79
2021/09/19 10:02:33;;;;;;;11.37;10.47;;;21.60;99.90;;;;;;4998078;28;20231;-80
2021/09/19 10:05:01;;;;;;;10.40;9.50;;;21.40;99.90;;;;;;5031481;28;20279;-79
2021/09/19 10:07:28;;;;;;;10.97;10.17;;;21.20;99.90;;;;;;5014028;28;20266;-80
2021/09/19 10:09:55;;;;;;;11.03;10.20;;;21.20;99.90;;;;;;5032219;28;20195;-79
2021/09/19 10:12:22;;;;;;;12.93;11.83;;;21.20;99.90;;;;;;5029594;28;20230;-80
2021/09/19 10:14:50;;;;;;;12.57;11.57;;;21.10;99.90;;;;;;5030402;28;20200;-78
2021/09/19 10:17:19;;;;;;;11.30;10.40;;;20.90;99.90;;;;;;5010877;28;20301;-78
2021/09/19 10:19:47;;;;;;;12.52;11.55;;;21.00;99.90;;;;;;5022892;28;20483;-78
2021/09/19 10:22:18;;;;;;;12.33;11.23;;;20.70;99.90;;;;;;5012560;28;20207;-79
2021/09/19 10:24:45;;;;;;;13.30;12.20;;;20.40;99.90;;;;;;5009111;28;20218;-79
2021/09/19 10:27:22;;;;;;;11.00;10.10;;;20.20;99.90;;;;;;5029134;28;20227;-79
2021/09/19 10:29:49;;;;;;;10.70;9.60;;;20.10;99.90;;;;;;5030998;28;20187;-80
2021/09/19 10:32:36;;;;;;;12.67;11.67;;;20.10;99.90;;;;;;5003649;28;20207;-79
2021/09/19 10:35:12;;;;;;;11.87;10.97;;;19.90;99.90;;;;;;5013496;28;20207;-79
2021/09/19 10:37:50;;;;;;;11.37;10.47;;;19.90;99.90;;;;;;5022895;28;20234;-80
2021/09/19 10:40:33;;;;;;;11.63;10.63;;;19.80;99.90;;;;;;5000340;28;20667;-79
2021/09/19 10:43:00;;;;;;;11.17;10.27;;;19.90;99.90;;;;;;5000575;28;20287;-79
2021/09/19 10:45:39;;;;;;;10.80;9.90;;;20.00;99.90;;;;;;5002786;28;20242;-79
2021/09/19 10:48:15;;;;;;;12.10;11.13;;;20.00;99.90;;;;;;5009616;28;20246;-79
2021/09/19 10:50:43;;;;;;;11.77;10.73;;;19.90;99.90;;;;;;5022381;28;20248;-79
2021/09/19 10:53:22;;;;;;;12.00;10.93;;;19.80;99.90;;;;;;5022407;28;20699;-79
2021/09/19 10:55:57;;;;;;;12.97;11.50;;;19.90;99.90;;;;;;4999802;28;20209;-79
2021/09/19 10:58:27;;;;;;;12.60;11.40;;;19.80;99.90;;;;;;5023023;28;20599;-79
2021/09/19 11:01:20;;;;;;;12.20;11.10;;;19.60;99.90;;;;;;5019537;28;20613;-80
2021/09/19 11:04:09;;;;;;;13.33;12.03;;;19.60;99.90;;;;;;5023166;28;20202;-86
2021/09/19 11:06:39;;;;;;;12.13;11.13;;;19.40;99.90;;;;;;5007218;28;20213;-79
2021/09/19 11:09:22;;;;;;;11.90;10.93;;;19.50;99.90;;;;;;5016405;28;20397;-80
2021/09/19 11:12:08;;;;;;;12.40;11.40;;;19.70;99.90;;;;;;5005256;28;20560;-80
2021/09/19 11:14:56;;;;;;;12.03;10.87;;;19.60;99.90;;;;;;5022069;28;20220;-80
2021/09/19 11:17:24;;;;;;;11.63;10.70;;;19.50;99.90;;;;;;5009767;28;20220;-80
2021/09/19 11:20:24;;;;;;;12.67;11.57;;;19.40;99.90;;;;;;5022864;28;20217;-80
2021/09/19 11:22:52;;;;;;;12.20;11.10;;;19.50;99.90;;;;;;5026804;28;20289;-81
2021/09/19 11:25:22;;;;;;;12.00;11.00;;;19.60;99.90;;;;;;5025684;28;20200;-78
2021/09/19 11:27:51;;;;;;;11.97;10.97;;;19.80;99.90;;;;;;4999412;28;20225;-80
2021/09/19 11:30:21;;;;;;;10.97;10.07;;;19.80;99.90;;;;;;5022629;28;20221;-80
2021/09/19 11:32:48;;;;;;;11.03;10.13;;;19.80;99.90;;;;;;5000992;28;20209;-81
2021/09/19 11:35:16;;;;;;;10.57;9.60;;;19.80;99.90;;;;;;5015733;28;20224;-80
2021/09/19 11:37:43;;;;;;;11.27;10.47;;;19.90;99.90;;;;;;5014551;28;20233;-79
2021/09/19 11:40:21;;;;;;;10.80;10.00;;;19.90;99.90;;;;;;5012107;28;20210;-80
2021/09/19 11:42:50;;;;;;;11.13;10.03;;;19.90;99.90;;;;;;5027923;28;20264;-79
2021/09/19 11:45:17;;;;;;;10.77;9.93;;;19.90;99.90;;;;;;5013744;28;20201;-80
2021/09/19 11:47:46;;;;;;;10.57;9.77;;;20.00;99.90;;;;;;5033521;28;20219;-78
2021/09/19 11:50:13;;;;;;;11.43;10.53;;;20.00;99.90;;;;;;5031503;28;20229;-78
2021/09/19 11:52:42;;;;;;;10.50;9.70;;;19.90;99.90;;;;;;5027196;28;20188;-80
2021/09/19 11:55:10;;;;;;;10.87;9.97;;;20.10;99.90;;;;;;5031019;28;20284;-80
2021/09/19 11:57:36;;;;;;;10.43;9.53;;;20.20;99.90;;;;;;5010671;28;20275;-81
2021/09/19 12:00:06;;;;;;;10.30;9.50;;;20.40;99.90;;;;;;5000241;28;20258;-79
2021/09/19 12:35:52;;;;;;;9.70;9.00;;;20.30;99.90;;;;;;4935624;29;20239;-80
2021/09/19 13:09:13;;;;;;;8.57;7.87;;;20.50;99.90;;;;;;5001769;23;20241;-76
2021/09/19 13:11:39;;;;;;;8.50;7.90;;;20.70;99.90;;;;;;5000945;28;20207;-78
2021/09/19 13:14:06;;;;;;;8.80;7.90;;;20.70;99.90;;;;;;4998407;28;20221;-78
2021/09/19 13:16:33;;;;;;;8.90;8.07;;;20.40;99.90;;;;;;5001631;28;20205;-78
2021/09/19 13:19:01;;;;;;;8.70;8.00;;;20.30;99.90;;;;;;4981500;28;20226;-78
2021/09/19 13:21:28;;;;;;;8.63;8.03;;;20.10;99.90;;;;;;5001941;28;20627;-77
2021/09/19 13:23:55;;;;;;;8.90;8.30;;;20.10;99.90;;;;;;5002162;28;20196;-79
2021/09/19 13:26:24;;;;;;;8.40;7.80;;;20.10;99.90;;;;;;4993757;28;20281;-78
2021/09/19 13:28:51;;;;;;;8.20;7.60;;;20.10;99.90;;;;;;4982274;28;20235;-77
2021/09/19 13:31:18;;;;;;;8.03;7.43;;;20.10;99.90;;;;;;4977416;28;20200;-77
2021/09/19 13:33:44;;;;;;;8.30;7.70;;;20.10;99.90;;;;;;4977673;28;20269;-78
2021/09/19 13:36:11;;;;;;;8.03;7.43;;;20.30;99.90;;;;;;4974579;28;20665;-78
2021/09/19 13:38:38;;;;;;;7.83;7.23;;;20.30;99.90;;;;;;4992772;28;20273;-78
2021/09/19 13:41:06;;;;;;;7.67;7.17;;;20.40;99.90;;;;;;4993990;28;20200;-78
2021/09/19 13:43:35;;;;;;;7.60;7.10;;;20.60;99.90;;;;;;4993289;28;20223;-77
2021/09/19 13:46:03;;;;;;;7.90;7.30;;;20.70;99.90;;;;;;4978834;28;20259;-77
2021/09/19 13:48:30;;;;;;;7.60;7.00;;;20.70;99.90;;;;;;4992396;28;20302;-78
2021/09/19 13:50:57;;;;;;;7.60;7.10;;;20.60;99.90;;;;;;4991733;28;20251;-77
2021/09/19 13:53:24;;;;;;;8.30;7.50;;;20.60;99.90;;;;;;4978425;28;20209;-76
2021/09/19 13:55:54;;;;;;;8.10;7.50;;;20.40;99.90;;;;;;4976314;28;20204;-77
2021/09/19 13:58:21;;;;;;;8.63;7.93;;;20.30;99.90;;;;;;5000532;28;20246;-78
2021/09/19 14:00:49;;;;;;;7.93;7.23;;;20.20;99.90;;;;;;5010301;28;20611;-79
2021/09/19 14:03:16;;;;;;;8.10;7.40;;;20.20;99.90;;;;;;5003189;28;20623;-78
2021/09/19 14:05:43;;;;;;;8.03;7.23;;;20.20;99.90;;;;;;5002242;28;20688;-78
2021/09/19 14:08:10;;;;;;;7.90;7.30;;;20.20;99.90;;;;;;5002559;28;20304;-79
2021/09/19 14:10:37;;;;;;;8.60;7.90;;;20.10;99.90;;;;;;5007645;28;20209;-78
2021/09/19 14:13:05;;;;;;;8.23;7.53;;;20.00;99.90;;;;;;4984348;28;20203;-82
2021/09/19 14:15:32;;;;;;;7.40;6.90;;;20.10;99.90;;;;;;4989690;28;20608;-79
2021/09/19 14:18:00;;;;;;;7.73;7.03;;;20.20;99.90;;;;;;4988596;28;20566;-80
2021/09/19 14:20:27;;;;;;;8.03;7.33;;;20.10;99.90;;;;;;5002676;28;20243;-77
2021/09/19 14:22:54;;;;;;;7.10;6.60;;;20.00;99.90;;;;;;4979566;28;20208;-77
2021/09/19 14:25:27;;;;;;;8.23;7.60;;;20.00;99.90;;;;;;4998852;28;20200;-79
2021/09/19 14:27:57;;;;;;;7.40;6.80;;;19.90;99.90;;;;;;4984269;28;20202;-79
2021/09/19 14:30:25;;;;;;;7.73;7.20;;;20.00;99.90;;;;;;5007270;28;20223;-78
2021/09/19 14:32:52;;;;;;;7.87;7.27;;;20.00;99.90;;;;;;4985392;28;20202;-79
2021/09/19 14:35:20;;;;;;;7.23;6.73;;;20.00;99.90;;;;;;5007006;28;20223;-77
2021/09/19 14:37:47;;;;;;;7.67;7.13;;;20.00;99.90;;;;;;4978871;28;20387;-78
2021/09/19 14:40:15;;;;;;;7.57;7.07;;;20.10;99.90;;;;;;5002466;28;20749;-79
2021/09/19 14:42:42;;;;;;;7.50;7.00;;;20.10;99.90;;;;;;5009216;28;20203;-77
2021/09/19 14:45:11;;;;;;;7.60;6.97;;;20.10;99.90;;;;;;5004686;28;20256;-79
2021/09/19 14:47:38;;;;;;;7.47;6.97;;;20.10;99.90;;;;;;5003505;28;20217;-78
2021/09/19 14:50:06;;;;;;;7.67;6.97;;;20.20;99.90;;;;;;5000372;28;20267;-77
2021/09/19 14:52:35;;;;;;;7.80;7.20;;;20.20;99.90;;;;;;5001198;28;20247;-78
2021/09/19 14:55:02;;;;;;;7.90;7.30;;;20.20;99.90;;;;;;5000227;28;20247;-77
2021/09/19 14:57:29;;;;;;;7.60;7.10;;;20.10;99.90;;;;;;4998341;28;20254;-79
2021/09/19 14:59:55;;;;;;;8.13;7.30;;;20.10;99.90;;;;;;5000953;28;20226;-78
2021/09/19 15:02:22;;;;;;;7.50;6.90;;;19.90;99.90;;;;;;4997882;28;20208;-78
2021/09/19 15:04:49;;;;;;;7.43;6.90;;;19.90;99.90;;;;;;5007084;28;20196;-79
2021/09/19 15:07:16;;;;;;;7.70;7.10;;;19.90;99.90;;;;;;4986555;28;20247;-79
2021/09/19 15:09:44;;;;;;;7.57;6.97;;;19.90;99.90;;;;;;4984416;28;20660;-79
2021/09/19 15:12:11;;;;;;;7.60;7.00;;;19.80;99.90;;;;;;5005130;28;20200;-80
2021/09/19 15:14:38;;;;;;;8.90;8.20;;;19.80;99.90;;;;;;4990567;28;20215;-77
2021/09/19 15:17:05;;;;;;;8.00;7.40;;;19.70;99.90;;;;;;4980320;28;20207;-79
2021/09/19 15:19:32;;;;;;;8.23;7.63;;;19.50;99.90;;;;;;4987723;28;20257;-79
2021/09/19 15:21:59;;;;;;;8.07;7.47;;;19.40;99.90;;;;;;4992389;28;20329;-78
2021/09/19 15:24:26;;;;;;;8.70;7.90;;;19.30;99.90;;;;;;5001288;28;20254;-76
2021/09/19 15:26:55;;;;;;;8.93;8.20;;;19.20;99.90;;;;;;4983746;28;20621;-78
2021/09/19 15:29:21;;;;;;;9.53;8.80;;;19.10;99.90;;;;;;5006687;28;20223;-77
2021/09/19 15:31:48;;;;;;;9.63;8.93;;;19.00;99.90;;;;;;4988759;28;20201;-80
2021/09/19 15:34:16;;;;;;;9.07;8.37;;;18.80;99.90;;;;;;5003078;28;20566;-80
2021/09/19 15:36:43;;;;;;;9.33;8.63;;;18.70;99.90;;;;;;4986034;28;20671;-78
2021/09/19 15:39:11;;;;;;;9.40;8.50;;;18.70;99.90;;;;;;4990433;28;20228;-76
2021/09/19 15:41:38;;;;;;;9.20;8.50;;;18.60;99.90;;;;;;4982196;28;20213;-77